createdAt,value
2023-06-13T00:00:45.565Z,99528.72
2023-06-13T00:03:15.456Z,99531.19
2023-06-13T00:05:46.471Z,99530.28
2023-06-13T00:08:19.008Z,99527.69
2023-06-13T00:10:47.867Z,99527.78
2023-06-13T00:13:16.470Z,99516.94
2023-06-13T00:15:51.157Z,99511.13
2023-06-13T00:18:23.569Z,99513.69
2023-06-13T00:20:53.226Z,99517.97
2023-06-13T00:23:21.102Z,99513.78
2023-06-13T00:25:49.232Z,99510.41
2023-06-13T00:28:17.216Z,99503.66
2023-06-13T00:30:46.517Z,99501.13
2023-06-13T00:33:17.267Z,99504.50
2023-06-13T00:35:48.868Z,99498.59
2023-06-13T00:38:22.276Z,99498.53
2023-06-13T00:40:51.543Z,99490.97
2023-06-13T00:43:19.570Z,99492.69
2023-06-13T00:45:48.235Z,99484.28
2023-06-13T00:48:16.959Z,99495.22
2023-06-13T00:50:46.115Z,99496.91
2023-06-13T00:53:17.927Z,99465.88
2023-06-13T00:55:47.826Z,99488.59
2023-06-13T00:58:17.479Z,99475.97
2023-06-13T01:00:46.723Z,99477.59
2023-06-13T01:03:17.407Z,99472.53
2023-06-13T01:05:46.947Z,99469.16
2023-06-13T01:08:19.573Z,99468.31
2023-06-13T01:10:53.685Z,99464.97
2023-06-13T01:13:29.435Z,99459.97
2023-06-13T01:16:08.095Z,99465.00
2023-06-13T01:18:36.621Z,99460.78
2023-06-13T01:21:06.693Z,99472.53
2023-06-13T01:23:51.036Z,99476.75
2023-06-13T01:26:29.551Z,99475.91
2023-06-13T01:29:00.442Z,99480.16
2023-06-13T01:31:30.214Z,99471.75
2023-06-13T01:33:58.796Z,99467.53
2023-06-13T01:36:27.557Z,99470.06
2023-06-13T01:38:56.442Z,99469.22
2023-06-13T01:41:24.830Z,99468.41
2023-06-13T01:43:53.189Z,99461.69
2023-06-13T01:46:28.159Z,99460.84
2023-06-13T01:49:14.323Z,99456.63
2023-06-13T01:51:50.601Z,99463.38
2023-06-13T01:54:23.476Z,99459.16
2023-06-13T01:56:55.874Z,99472.59
2023-06-13T01:59:27.682Z,99470.94
2023-06-13T02:01:58.781Z,99473.44
2023-06-13T02:04:28.782Z,99473.47
2023-06-13T02:06:56.938Z,99476.00
2023-06-13T02:09:24.840Z,99470.09
2023-06-13T02:11:52.798Z,99465.91
2023-06-13T02:14:20.710Z,99461.69
2023-06-13T02:16:49.592Z,99464.22
2023-06-13T02:19:19.499Z,99464.19
2023-06-13T02:21:49.321Z,99465.06
2023-06-13T02:24:19.763Z,99460.84
2023-06-13T02:26:47.814Z,99464.19
2023-06-13T02:29:19.398Z,99456.63
2023-06-13T02:31:48.143Z,99465.03
2023-06-13T02:34:16.405Z,99467.53
2023-06-13T02:36:45.673Z,99461.66
2023-06-13T02:39:13.665Z,99459.97
2023-06-13T02:41:43.328Z,99461.66
2023-06-13T02:44:11.230Z,99457.44
2023-06-13T02:46:39.304Z,99465.88
2023-06-13T02:49:07.518Z,99455.78
2023-06-13T02:51:35.444Z,99459.09
2023-06-13T02:54:04.904Z,99459.09
2023-06-13T02:56:32.814Z,99459.13
2023-06-13T02:59:00.787Z,99460.81
2023-06-13T03:01:30.302Z,99460.81
2023-06-13T03:04:03.483Z,99454.91
2023-06-13T03:06:32.190Z,99456.53
2023-06-13T03:09:00.481Z,99464.09
2023-06-13T03:11:33.740Z,99459.03
2023-06-13T03:14:01.865Z,99461.53
2023-06-13T03:16:31.039Z,99457.31
2023-06-13T03:19:00.442Z,99448.03
2023-06-13T03:21:28.310Z,99462.34
2023-06-13T03:23:56.532Z,99459.03
2023-06-13T03:26:26.730Z,99454.84
2023-06-13T03:28:56.122Z,99452.22
2023-06-13T03:31:24.058Z,99452.97
2023-06-13T03:33:52.787Z,99462.13
2023-06-13T03:36:20.830Z,99458.78
2023-06-13T03:38:48.767Z,99450.38
2023-06-13T03:41:16.963Z,99450.34
2023-06-13T03:43:45.640Z,99444.53
2023-06-13T03:46:16.133Z,99447.94
2023-06-13T03:48:44.499Z,99447.97
2023-06-13T03:51:12.626Z,99442.09
2023-06-13T03:53:41.046Z,99445.44
2023-06-13T03:56:09.005Z,99448.00
2023-06-13T03:58:37.005Z,99446.31
2023-06-13T04:01:07.631Z,99453.00
2023-06-13T04:03:40.828Z,99455.56
2023-06-13T04:06:09.695Z,99455.56
2023-06-13T04:08:38.109Z,99457.25
2023-06-13T04:11:07.548Z,99458.13
2023-06-13T04:13:35.609Z,99449.75
2023-06-13T04:16:03.540Z,99455.63
2023-06-13T04:18:31.886Z,99459.81
2023-06-13T04:21:02.681Z,99453.13
2023-06-13T04:23:30.579Z,99456.53
2023-06-13T04:26:01.491Z,99440.56
2023-06-13T04:28:31.047Z,99458.25
2023-06-13T04:30:59.023Z,99459.09
2023-06-13T04:33:27.751Z,99443.81
2023-06-13T04:36:00.612Z,99461.44
2023-06-13T04:38:30.637Z,99458.97
2023-06-13T04:40:59.141Z,99458.25
2023-06-13T04:43:29.421Z,99459.09
2023-06-13T04:45:57.570Z,99452.38
2023-06-13T04:48:26.494Z,99451.47
2023-06-13T04:50:54.870Z,99447.28
2023-06-13T04:53:24.256Z,99453.16
2023-06-13T04:55:53.665Z,99454.06
2023-06-13T04:58:21.745Z,99449.03
2023-06-13T05:00:50.010Z,99454.88
2023-06-13T05:03:18.570Z,99453.16
2023-06-13T05:05:46.796Z,99455.56
2023-06-13T05:08:20.406Z,99452.16
2023-06-13T05:10:49.627Z,99447.94
2023-06-13T05:13:19.320Z,99446.28
2023-06-13T05:15:48.144Z,99441.22
2023-06-13T05:18:16.184Z,99440.38
2023-06-13T05:20:44.415Z,99441.34
2023-06-13T05:23:14.636Z,99433.03
2023-06-13T05:25:42.583Z,99435.59
2023-06-13T05:28:10.621Z,99432.25
2023-06-13T05:30:39.912Z,99421.28
2023-06-13T05:33:08.028Z,99422.13
2023-06-13T05:35:51.869Z,99414.53
2023-06-13T05:38:23.838Z,99419.59
2023-06-13T05:40:51.727Z,99417.06
2023-06-13T05:43:20.924Z,99413.69
2023-06-13T05:45:50.539Z,99417.00
2023-06-13T05:48:18.551Z,99417.00
2023-06-13T05:50:46.461Z,99417.84
2023-06-13T05:53:14.424Z,99416.16
2023-06-13T05:55:43.821Z,99423.75
2023-06-13T05:58:11.711Z,99423.78
2023-06-13T06:00:41.350Z,99422.94
2023-06-13T06:03:11.628Z,99417.91
2023-06-13T06:05:39.739Z,99414.47
2023-06-13T06:08:07.821Z,99418.63
2023-06-13T06:10:36.056Z,99425.38
2023-06-13T06:13:04.132Z,99429.56
2023-06-13T06:15:33.185Z,99432.06
2023-06-13T06:18:01.313Z,99427.03
2023-06-13T06:20:30.792Z,99422.81
2023-06-13T06:22:58.838Z,99427.00
2023-06-13T06:25:27.016Z,99423.59
2023-06-13T06:27:56.166Z,99423.63
2023-06-13T06:30:24.265Z,99419.41
2023-06-13T06:32:52.922Z,99431.19
2023-06-13T06:35:20.927Z,99418.56
2023-06-13T06:37:50.260Z,99416.03
2023-06-13T06:40:19.149Z,99397.53
2023-06-13T06:42:47.806Z,99422.75
2023-06-13T06:45:21.181Z,99420.28
2023-06-13T06:47:49.152Z,99423.66
2023-06-13T06:50:17.280Z,99419.44
2023-06-13T06:52:45.878Z,99416.84
2023-06-13T06:55:15.304Z,99415.09
2023-06-13T06:57:43.165Z,99412.53
2023-06-13T07:00:15.920Z,99416.72
2023-06-13T07:02:44.636Z,99408.25
2023-06-13T07:05:13.609Z,99410.94
2023-06-13T07:07:41.554Z,99410.13
2023-06-13T07:10:10.936Z,99416.00
2023-06-13T07:12:40.952Z,99410.06
2023-06-13T07:15:09.908Z,99410.00
2023-06-13T07:17:37.924Z,99413.31
2023-06-13T07:20:09.084Z,99411.69
2023-06-13T07:22:37.116Z,99403.19
2023-06-13T07:25:06.022Z,99403.97
2023-06-13T07:27:34.006Z,99403.91
2023-06-13T07:30:03.444Z,99405.56
2023-06-13T07:32:32.320Z,99406.41
2023-06-13T07:35:06.331Z,99397.97
2023-06-13T07:37:35.028Z,99398.00
2023-06-13T07:40:04.512Z,99394.66
2023-06-13T07:42:33.027Z,99390.47
2023-06-13T07:45:00.950Z,99387.06
2023-06-13T07:47:30.368Z,99385.25
2023-06-13T07:49:58.312Z,99379.28
2023-06-13T07:52:26.213Z,99375.84
2023-06-13T07:54:54.231Z,99375.06
2023-06-13T07:59:53.127Z,99366.56
2023-06-13T08:02:21.016Z,99361.41
2023-06-13T08:04:54.365Z,99365.50
2023-06-13T08:07:23.199Z,99349.44
2023-06-13T08:09:51.252Z,99357.03
2023-06-13T08:12:19.237Z,99343.50
2023-06-13T08:14:47.088Z,99347.59
2023-06-13T08:17:15.144Z,99348.38
2023-06-13T08:19:43.039Z,99339.84
2023-06-13T08:22:12.413Z,99346.53
2023-06-13T08:24:40.421Z,99351.56
2023-06-13T08:27:09.179Z,99340.53
2023-06-13T08:29:37.328Z,99342.16
2023-06-13T08:32:06.043Z,99334.50
2023-06-13T08:34:33.987Z,99331.09
2023-06-13T08:37:02.009Z,99334.47
2023-06-13T08:39:31.320Z,99331.00
2023-06-13T08:42:00.212Z,99337.69
2023-06-13T08:44:28.973Z,99320.78
2023-06-13T08:46:56.902Z,99320.75
2023-06-13T08:49:24.875Z,99320.69
2023-06-13T08:51:54.237Z,99326.53
2023-06-13T08:54:22.954Z,99320.53
2023-06-13T08:56:53.876Z,99319.56
2023-06-13T08:59:26.297Z,99311.91
2023-06-13T09:01:55.191Z,99295.00
2023-06-13T09:04:25.045Z,99301.66
2023-06-13T09:06:54.651Z,99310.13
2023-06-13T09:09:22.665Z,99307.59
2023-06-13T09:11:52.668Z,99310.13
2023-06-13T09:14:20.869Z,99310.88
2023-06-13T09:16:52.488Z,99303.19
2023-06-13T09:19:20.737Z,99302.22
2023-06-13T09:21:48.833Z,99307.19
2023-06-13T09:24:17.955Z,99300.41
2023-06-13T09:26:46.666Z,99297.81
2023-06-13T09:29:27.192Z,99299.47
2023-06-13T09:32:00.896Z,99297.66
2023-06-13T09:34:29.611Z,99302.69
2023-06-13T09:36:59.567Z,99304.34
2023-06-13T09:39:28.843Z,99315.34
2023-06-13T09:41:56.952Z,99310.28
2023-06-13T09:44:26.834Z,99310.31
2023-06-13T09:46:56.683Z,99302.69
2023-06-13T09:49:24.721Z,99302.66
2023-06-13T09:51:53.738Z,99295.94
2023-06-13T09:54:22.461Z,99301.06
2023-06-13T09:56:50.317Z,99298.50
2023-06-13T09:59:19.169Z,99285.78
2023-06-13T10:01:49.470Z,99289.25
2023-06-13T10:04:17.589Z,99286.72
2023-06-13T10:06:45.446Z,99293.44
2023-06-13T10:09:13.406Z,99287.44
2023-06-13T10:11:46.058Z,99278.13
2023-06-13T10:14:18.694Z,99296.56
2023-06-13T10:17:07.541Z,99285.72
2023-06-13T10:19:40.037Z,99277.34
2023-06-13T10:22:10.080Z,99277.25
2023-06-13T10:24:39.196Z,99277.16
2023-06-13T10:27:09.588Z,99272.72
2023-06-13T10:29:58.358Z,99275.19
2023-06-13T10:32:56.916Z,99286.97
2023-06-13T10:35:47.111Z,99274.16
2023-06-13T10:38:55.520Z,99271.59
2023-06-13T10:41:40.379Z,99270.72
2023-06-13T10:44:14.544Z,99240.44
2023-06-13T10:46:43.287Z,99268.88
2023-06-13T10:49:19.531Z,99271.34
2023-06-13T10:51:47.945Z,99255.38
2023-06-13T10:54:17.175Z,99257.97
2023-06-13T10:56:46.126Z,99251.19
2023-06-13T10:59:17.615Z,99247.88
2023-06-13T11:01:46.447Z,99256.38
2023-06-13T11:04:17.444Z,99248.72
2023-06-13T11:06:47.550Z,99243.53
2023-06-13T11:09:20.889Z,99247.75
2023-06-13T11:11:51.164Z,99250.06
2023-06-13T11:14:23.268Z,99250.72
2023-06-13T11:16:51.353Z,99240.63
2023-06-13T11:19:22.650Z,99243.06
2023-06-13T11:21:54.449Z,99235.34
2023-06-13T11:24:23.519Z,99233.53
2023-06-13T11:26:51.542Z,99224.16
2023-06-13T11:29:19.455Z,99218.88
2023-06-13T11:31:48.065Z,99212.75
2023-06-13T11:34:17.866Z,99199.00
2023-06-13T11:36:48.131Z,99210.31
2023-06-13T11:39:22.994Z,99214.97
2023-06-13T11:41:51.162Z,99211.94
2023-06-13T11:44:19.211Z,99218.84
2023-06-13T11:46:47.872Z,99205.34
2023-06-13T11:49:16.966Z,99201.19
2023-06-13T11:51:47.103Z,99215.34
2023-06-13T11:54:15.059Z,99209.16
2023-06-13T11:56:52.938Z,99216.56
2023-06-13T11:59:22.495Z,99196.28
2023-06-13T12:01:51.504Z,99206.91
2023-06-13T12:04:19.578Z,99200.75
2023-06-13T12:06:49.136Z,99203.84
2023-06-13T12:09:17.793Z,99210.22
2023-06-13T12:11:46.170Z,99196.59
2023-06-13T12:14:17.514Z,99198.63
2023-06-13T12:16:45.519Z,99197.09
2023-06-13T12:19:13.416Z,99209.56
2023-06-13T12:21:42.330Z,99182.88
2023-06-13T12:24:12.294Z,99184.13
2023-06-13T12:26:44.396Z,99195.81
2023-06-13T12:29:15.061Z,99195.69
2023-06-13T12:31:45.729Z,99183.66
2023-06-13T12:34:17.539Z,99187.72
2023-06-13T12:36:46.742Z,99179.78
2023-06-13T12:39:18.590Z,99183.50
2023-06-13T12:41:48.843Z,99178.44
2023-06-13T12:44:17.917Z,99176.66
2023-06-13T12:46:46.760Z,99176.16
2023-06-13T12:49:16.055Z,99175.63
2023-06-13T12:51:45.205Z,99178.19
2023-06-13T12:54:14.146Z,99172.75
2023-06-13T12:56:53.641Z,99165.88
2023-06-13T12:59:30.551Z,99165.78
2023-06-13T13:01:59.006Z,99162.41
2023-06-13T13:04:31.610Z,99155.50
2023-06-13T13:07:00.431Z,99167.25
2023-06-13T13:09:29.688Z,99173.81
2023-06-13T13:12:00.253Z,99165.06
2023-06-13T13:14:29.283Z,99159.50
2023-06-13T13:16:58.071Z,99154.66
2023-06-13T13:19:26.162Z,99154.16
2023-06-13T13:21:54.250Z,99149.53
2023-06-13T13:24:22.380Z,99139.97
2023-06-13T13:26:52.942Z,99140.56
2023-06-13T13:29:22.272Z,99158.88
2023-06-13T13:31:50.324Z,99145.41
2023-06-13T13:34:23.749Z,99128.16
2023-06-13T13:36:54.599Z,99134.25
2023-06-13T13:39:24.367Z,99139.00
2023-06-13T13:41:52.881Z,99142.53
2023-06-13T13:44:22.357Z,99139.09
2023-06-13T13:46:50.685Z,99130.34
2023-06-13T13:49:18.591Z,99133.38
2023-06-13T13:51:49.026Z,99131.34
2023-06-13T13:54:17.042Z,99129.28
2023-06-13T13:56:45.569Z,99141.56
2023-06-13T13:59:13.595Z,99122.44
2023-06-13T14:01:42.943Z,99137.34
2023-06-13T14:04:11.000Z,99123.81
2023-06-13T14:06:38.965Z,99115.72
2023-06-13T14:09:11.024Z,99114.41
2023-06-13T14:11:39.066Z,99128.19
2023-06-13T14:14:06.991Z,99133.59
2023-06-13T14:16:34.988Z,99118.09
2023-06-13T14:19:04.398Z,99123.75
2023-06-13T14:21:33.699Z,99116.78
2023-06-13T14:24:01.853Z,99126.25
2023-06-13T14:26:31.022Z,99115.00
2023-06-13T14:28:59.111Z,99120.97
2023-06-13T14:31:27.012Z,99111.84
2023-06-13T14:33:56.610Z,99129.25
2023-06-13T14:36:25.923Z,99101.88
2023-06-13T14:38:53.906Z,99112.44
2023-06-13T14:41:21.769Z,99097.16
2023-06-13T14:43:49.700Z,99105.31
2023-06-13T14:46:17.760Z,99107.72
2023-06-13T14:48:45.699Z,99100.22
2023-06-13T14:51:13.879Z,99105.84
2023-06-13T14:53:43.165Z,99106.31
2023-06-13T14:56:11.068Z,99104.00
2023-06-13T14:58:39.013Z,99096.53
2023-06-13T15:01:08.551Z,99101.75
2023-06-13T15:03:40.942Z,99098.41
2023-06-13T15:06:09.927Z,99095.38
2023-06-13T15:08:40.182Z,99102.66
2023-06-13T15:11:10.760Z,99090.03
2023-06-13T15:13:38.939Z,99085.53
2023-06-13T15:16:07.906Z,99088.69
2023-06-13T15:18:37.597Z,99090.94
2023-06-13T15:21:06.160Z,99096.63
2023-06-13T15:23:36.965Z,99089.00
2023-06-13T15:26:05.041Z,99089.84
2023-06-13T15:28:34.352Z,99092.53
2023-06-13T15:31:02.254Z,99094.56
2023-06-13T15:33:33.944Z,99091.09
2023-06-13T15:36:04.109Z,99082.63
2023-06-13T15:38:32.703Z,99085.84
2023-06-13T15:41:00.725Z,99085.47
2023-06-13T15:43:28.855Z,99089.88
2023-06-13T15:45:58.158Z,99098.69
2023-06-13T15:48:26.166Z,99090.72
2023-06-13T15:50:54.093Z,99085.59
2023-06-13T15:53:22.037Z,99086.16
2023-06-13T15:55:50.163Z,99093.78
2023-06-13T15:58:18.162Z,99090.00
2023-06-13T16:00:46.128Z,99066.00
2023-06-13T16:03:15.694Z,99093.38
2023-06-13T16:05:44.315Z,99086.41
2023-06-13T16:08:12.179Z,99097.19
2023-06-13T16:10:40.150Z,99092.66
2023-06-13T16:13:08.168Z,99108.69
2023-06-13T16:15:36.338Z,99103.72
2023-06-13T16:18:04.805Z,99106.16
2023-06-13T16:20:34.054Z,99108.53
2023-06-13T16:23:02.020Z,99108.69
2023-06-13T16:25:29.981Z,99102.47
2023-06-13T16:27:58.257Z,99093.84
2023-06-13T16:30:27.050Z,99102.41
2023-06-13T16:32:55.587Z,99100.00
2023-06-13T16:35:26.182Z,99106.31
2023-06-13T16:37:55.507Z,99110.84
2023-06-13T16:40:23.357Z,99109.00
2023-06-13T16:42:51.482Z,99104.66
2023-06-13T16:45:19.846Z,99117.25
2023-06-13T16:47:48.040Z,99122.22
2023-06-13T16:50:17.336Z,99122.50
2023-06-13T16:52:45.480Z,99114.56
2023-06-13T16:55:15.835Z,99120.09
2023-06-13T16:57:44.028Z,99117.84
2023-06-13T17:00:13.649Z,99125.44
2023-06-13T17:02:41.724Z,99128.06
2023-06-13T17:05:10.777Z,99122.94
2023-06-13T17:07:39.753Z,99122.50
2023-06-13T17:10:08.588Z,99130.41
2023-06-13T17:12:42.894Z,99129.34
2023-06-13T17:15:12.185Z,99141.91
2023-06-13T17:17:40.438Z,99134.91
2023-06-13T17:20:09.432Z,99132.09
2023-06-13T17:22:37.670Z,99139.72
2023-06-13T17:25:06.257Z,99135.13
2023-06-13T17:27:34.334Z,99139.22
2023-06-13T17:30:03.614Z,99132.84
2023-06-13T17:32:32.003Z,99147.16
2023-06-13T17:34:59.946Z,99142.66
2023-06-13T17:37:28.633Z,99146.22
2023-06-13T17:39:56.682Z,99151.44
2023-06-13T17:42:24.597Z,99143.81
2023-06-13T17:44:52.436Z,99148.66
2023-06-13T17:47:21.823Z,99147.78
2023-06-13T17:49:49.741Z,99153.47
2023-06-13T17:52:17.617Z,99131.44
2023-06-13T17:54:46.286Z,99150.59
2023-06-13T17:57:14.356Z,99158.72
2023-06-13T17:59:42.220Z,99157.28
2023-06-13T18:02:12.434Z,99155.03
2023-06-13T18:04:41.920Z,99156.53
2023-06-13T18:07:09.793Z,99160.19
2023-06-13T18:09:37.840Z,99167.34
2023-06-13T18:12:17.027Z,99139.81
2023-06-13T18:14:49.065Z,99158.69
2023-06-13T18:17:17.564Z,99160.38
2023-06-13T18:19:47.297Z,99170.13
2023-06-13T18:22:15.492Z,99168.06
2023-06-13T18:24:43.606Z,99171.03
2023-06-13T18:27:12.755Z,99174.75
2023-06-13T18:29:43.434Z,99174.09
2023-06-13T18:32:13.097Z,99169.28
2023-06-13T18:34:41.238Z,99173.78
2023-06-13T18:37:10.973Z,99175.03
2023-06-13T18:39:39.081Z,99177.00
2023-06-13T18:42:08.574Z,99175.50
2023-06-13T18:44:36.609Z,99167.44
2023-06-13T18:47:05.137Z,99173.47
2023-06-13T18:49:35.100Z,99176.06
2023-06-13T18:52:06.393Z,99182.09
2023-06-13T18:54:35.880Z,99183.84
2023-06-13T18:57:05.046Z,99185.53
2023-06-13T18:59:34.362Z,99197.13
2023-06-13T19:02:02.564Z,99190.28
2023-06-13T19:04:31.626Z,99200.41
2023-06-13T19:06:59.631Z,99192.06
2023-06-13T19:09:27.548Z,99203.81
2023-06-13T19:11:56.869Z,99191.47
2023-06-13T19:14:24.713Z,99211.56
2023-06-13T19:16:52.730Z,99217.50
2023-06-13T19:19:20.714Z,99222.69
2023-06-13T19:21:48.709Z,99222.03
2023-06-13T19:24:17.277Z,99226.53
2023-06-13T19:26:45.198Z,99225.22
2023-06-13T19:29:14.444Z,99230.47
2023-06-13T19:31:42.533Z,99228.72
2023-06-13T19:34:10.601Z,99231.19
2023-06-13T19:36:38.703Z,99236.22
2023-06-13T19:39:07.400Z,99244.03
2023-06-13T19:41:35.497Z,99235.13
2023-06-13T19:44:03.829Z,99243.72
2023-06-13T19:46:33.462Z,99241.31
2023-06-13T19:49:01.700Z,99247.38
2023-06-13T19:51:29.658Z,99250.78
2023-06-13T19:53:57.818Z,99236.59
2023-06-13T19:56:25.836Z,99245.94
2023-06-13T19:58:53.901Z,99251.16
2023-06-13T20:01:22.919Z,99249.56
2023-06-13T20:03:52.714Z,99252.22
2023-06-13T20:06:21.347Z,99250.50
2023-06-13T20:08:49.298Z,99250.47
2023-06-13T20:11:18.466Z,99263.94
2023-06-13T20:13:46.702Z,99255.63
2023-06-13T20:16:14.693Z,99257.47
2023-06-13T20:18:42.687Z,99262.78
2023-06-13T20:21:12.536Z,99253.63
2023-06-13T20:23:53.575Z,99241.31
2023-06-13T20:26:21.604Z,99258.28
2023-06-13T20:28:49.527Z,99256.69
2023-06-13T20:31:18.136Z,99254.22
2023-06-13T20:33:46.633Z,99255.97
2023-06-13T20:36:15.991Z,99256.75
2023-06-13T20:38:45.286Z,99240.03
2023-06-13T20:41:13.574Z,99258.50
2023-06-13T20:43:41.439Z,99261.06
2023-06-13T20:46:10.530Z,99261.06
2023-06-13T20:48:39.024Z,99261.03
2023-06-13T20:51:07.559Z,99263.53
2023-06-13T20:53:36.862Z,99259.94
2023-06-13T20:56:05.087Z,99259.81
2023-06-13T20:58:41.258Z,99261.53
2023-06-13T21:01:10.048Z,99258.16
2023-06-13T21:03:38.015Z,99260.66
2023-06-13T21:06:10.991Z,99267.47
2023-06-13T21:08:40.234Z,99266.63
2023-06-13T21:11:08.146Z,99266.66
2023-06-13T21:13:37.133Z,99274.31
2023-06-13T21:16:05.955Z,99272.63
2023-06-13T21:18:33.945Z,99276.91
2023-06-13T21:21:01.828Z,99271.88
2023-06-13T21:23:29.899Z,99285.47
2023-06-13T21:25:59.391Z,99276.22
2023-06-13T21:28:27.480Z,99271.19
2023-06-13T21:30:55.704Z,99289.00
2023-06-13T21:33:28.620Z,99289.91
2023-06-13T21:35:58.425Z,99283.19
2023-06-13T21:38:29.781Z,99282.50
2023-06-13T21:40:59.041Z,99288.47
2023-06-13T21:43:27.581Z,99289.38
2023-06-13T21:45:57.738Z,99289.38
2023-06-13T21:48:25.650Z,99292.00
2023-06-13T21:50:53.854Z,99294.63
2023-06-13T21:53:22.666Z,99293.91
2023-06-13T21:55:50.558Z,99293.91
2023-06-13T21:58:20.622Z,99294.81
2023-06-13T22:00:48.786Z,99295.63
2023-06-13T22:03:16.839Z,99295.63
2023-06-13T22:05:44.838Z,99295.63
2023-06-13T22:08:14.070Z,99298.16
2023-06-13T22:10:42.135Z,99302.53
2023-06-13T22:13:11.435Z,99294.16
2023-06-13T22:15:42.774Z,99304.25
2023-06-13T22:18:11.325Z,99303.50
2023-06-13T22:20:39.580Z,99303.53
2023-06-13T22:23:07.478Z,99313.66
2023-06-13T22:25:35.394Z,99305.19
2023-06-13T22:28:03.557Z,99304.34
2023-06-13T22:30:32.513Z,99303.50
2023-06-13T22:33:01.871Z,99305.19
2023-06-13T22:35:32.207Z,99300.16
2023-06-13T22:38:02.835Z,99301.06
2023-06-13T22:40:31.037Z,99300.28
2023-06-13T22:42:58.925Z,99303.59
2023-06-13T22:45:28.304Z,99300.22
2023-06-13T22:47:58.001Z,99300.22
2023-06-13T22:50:30.250Z,99294.41
2023-06-13T22:52:58.314Z,99293.59
2023-06-13T22:55:26.597Z,99291.94
2023-06-13T22:57:54.605Z,99300.44
2023-06-13T23:00:22.926Z,99303.78
2023-06-13T23:02:51.917Z,99307.19
2023-06-13T23:05:19.973Z,99311.41
2023-06-13T23:07:49.416Z,99303.81
2023-06-13T23:10:17.863Z,99312.25
2023-06-13T23:12:46.175Z,99313.09
2023-06-13T23:15:16.029Z,99307.19
2023-06-13T23:17:44.573Z,99299.66
2023-06-13T23:20:14.181Z,99315.66
2023-06-13T23:22:43.415Z,99304.75
2023-06-13T23:25:12.817Z,99315.66
2023-06-13T23:27:42.448Z,99309.72
2023-06-13T23:30:11.479Z,99313.97
2023-06-13T23:32:39.505Z,99317.34
2023-06-13T23:35:09.337Z,99315.63
2023-06-13T23:37:40.962Z,99311.44
2023-06-13T23:40:12.174Z,99317.41
2023-06-13T23:42:41.678Z,99322.47
2023-06-13T23:45:10.294Z,99309.03
2023-06-13T23:47:38.379Z,99315.78
2023-06-13T23:50:07.021Z,99322.50
2023-06-13T23:52:34.964Z,99315.78
2023-06-13T23:55:02.893Z,99316.69
2023-06-13T23:57:31.030Z,99311.63
